»·PEaware :: N2494V KPDX-KOLM

N2494V :: KPDX-KOLM

FLIGHT INFORMATION

Flight Status: Arrived
Operator: Privately registered:
United States
More flights under this callsign
Pilot: Sally S. (18014)
Aircraft: Unknown
(DA62)
More flights by this aircraft type
Origin: KPDX Portland Intl
United States
Destination: KOLM Olympia
United States
More flights between these airports :: More routes between these airports
Route: OLM
File this flight plan on PilotEdge
Remarks:
Altitude:
(Current/Filed)
6,500ft
Speed:
(Current/Filed)
165kts
Departed: 06-May-18 11:11 AM
Arrived: 06-May-18 11:45 AM
Distance/Time
Traveled:
84nm/0:34
Distance/Time
To Go:
Arrived

Flight Plot

Page will automatically refresh every two minutes.

Flight plan parsing failed; only flown route is shown


Map Options




Map Legend


Flown Route
Filed Route
Departure Airport
Arrival Airport
Navaid (VOR, NDB)
Fix

Horizontal Profiles

Position Reports

Time Latitude Longitude Heading Altitude Ground
Speed
06-May-18 10:36 45.588115 -122.585740 210 33ft 0kts
06-May-18 10:37 45.588115 -122.585740 210 33ft 0kts
06-May-18 10:38 45.588115 -122.585740 210 33ft 0kts
06-May-18 10:39 45.588115 -122.585740 210 33ft 0kts
06-May-18 10:40 45.588115 -122.585740 210 33ft 0kts
06-May-18 10:42 45.588115 -122.585740 210 33ft 0kts
06-May-18 10:43 45.588115 -122.585740 210 33ft 0kts
06-May-18 10:43 45.588115 -122.585740 210 33ft 0kts
06-May-18 10:44 45.588115 -122.585740 210 33ft 0kts
06-May-18 10:45 45.588115 -122.585740 210 33ft 0kts
06-May-18 10:46 45.588115 -122.585740 210 33ft 0kts
06-May-18 10:47 45.588115 -122.585740 210 33ft 0kts
06-May-18 10:48 45.588115 -122.585740 210 33ft 0kts
06-May-18 10:49 45.588115 -122.585740 210 33ft 0kts
06-May-18 10:50 45.588115 -122.585740 210 33ft 0kts
06-May-18 10:51 45.588115 -122.585740 210 33ft 0kts
06-May-18 10:52 45.588115 -122.585740 210 33ft 0kts
06-May-18 11:00 45.588115 -122.585740 210 33ft 0kts
06-May-18 11:01 45.588115 -122.585740 210 33ft 0kts
06-May-18 11:02 45.588175 -122.585787 33 33ft 0kts
06-May-18 11:03 45.588175 -122.585787 33 33ft 0kts
06-May-18 11:04 45.588175 -122.585787 33 33ft 0kts
06-May-18 11:05 45.588175 -122.585787 33 33ft 0kts
06-May-18 11:06 45.588155 -122.582217 90 33ft 10kts
06-May-18 11:07 45.585796 -122.575785 120 33ft 14kts
06-May-18 11:08 45.583828 -122.570829 118 33ft 19kts
06-May-18 11:09 45.582815 -122.567374 34 33ft 0kts
06-May-18 11:10 45.587043 -122.575778 298 61ft 99kts
06-May-18 11:11 45.600976 -122.610351 304 1436ft 103kts
06-May-18 11:13 45.628129 -122.622627 350 2486ft 119kts
06-May-18 11:14 45.659170 -122.629353 351 3297ft 124kts
06-May-18 11:15 45.694447 -122.636687 352 3980ft 140kts
06-May-18 11:16 45.733433 -122.644660 352 4655ft 143kts
06-May-18 11:17 45.773028 -122.652740 353 5346ft 144kts
06-May-18 11:18 45.812538 -122.660835 353 6040ft 143kts
06-May-18 11:19 45.851760 -122.668851 353 6485ft 148kts
06-May-18 11:20 45.894952 -122.677680 353 6491ft 161kts
06-May-18 11:21 45.941562 -122.687239 352 5951ft 182kts
06-May-18 11:22 45.991528 -122.697455 350 5314ft 180kts
06-May-18 11:23 46.041174 -122.707818 350 4825ft 183kts
06-May-18 11:24 46.091343 -122.718216 351 4517ft 176kts
06-May-18 11:25 46.135164 -122.727254 351 4517ft 169kts
06-May-18 11:26 46.180726 -122.736689 351 4517ft 168kts
06-May-18 11:27 46.226934 -122.746283 351 4517ft 168kts
06-May-18 11:28 46.273144 -122.755892 351 4517ft 168kts
06-May-18 11:29 46.319451 -122.765539 351 4517ft 168kts
06-May-18 11:30 46.365410 -122.775134 351 4517ft 168kts
06-May-18 11:31 46.411714 -122.784807 351 4517ft 168kts
06-May-18 11:32 46.457900 -122.794440 350 4515ft 167kts
06-May-18 11:33 46.503520 -122.804024 350 4515ft 164kts
06-May-18 11:34 46.547748 -122.813274 351 4509ft 160kts
06-May-18 11:35 46.592163 -122.822607 352 4508ft 161kts
06-May-18 11:36 46.636420 -122.831941 352 4508ft 161kts
06-May-18 11:37 46.680624 -122.841276 352 4509ft 161kts
06-May-18 11:38 46.724843 -122.850630 352 4508ft 161kts
06-May-18 11:39 46.769010 -122.859991 352 4508ft 161kts
06-May-18 11:40 46.811112 -122.868923 352 4508ft 161kts
06-May-18 11:41 46.854780 -122.878197 352 4459ft 154kts
06-May-18 11:42 46.898799 -122.887584 351 3196ft 157kts
06-May-18 11:43 46.926730 -122.915811 356 2069ft 90kts
06-May-18 11:44 46.952091 -122.909476 10 543ft 86kts
06-May-18 11:45 46.967106 -122.905006 46 212ft 12kts
06-May-18 11:46 46.967654 -122.900944 12 212ft 17kts
06-May-18 11:47 46.971521 -122.897962 45 212ft 16kts
06-May-18 11:48 46.973948 -122.897521 327 212ft 6kts
06-May-18 11:49 46.975400 -122.898175 323 212ft 0kts
06-May-18 11:50 46.975425 -122.898199 324 212ft 0kts

Navigation Log

Ident Type
Flight plan parsing failed, navigation log unavailable